CheckWX is a tool to help pilots better visualize weather data.  It is not intended as a substitute for an official pre-flight weather briefing.

00:54:40 UTC

KMCC TAF
Mc Clellan Airfield Airport
Sacramento, California, USA
KMCC 222334Z 2300/2324 28010KT P6SM SKC FM230500 18006KT P6SM SKC

Aug-23@
00:00 UTC

Aug-23 @ 00:00 UTC

Aug-23@
05:00 UTC

Aug-23 @ 05:00 UTC

KMCC 222334Z 2300/2324 28010KT P6SM SKC
Wind
  • 280° at 10 KTS
Cloud Levels
  • Clear skies

Aug-23@
05:00 UTC

Aug-23 @ 05:00 UTC

Aug-24@
00:00 UTC

Aug-24 @ 00:00 UTC

FM230500 18006KT P6SM SKC

From

From Standard forecast or significant change

Wind
  • 180° at 6 KTS
Cloud Levels
  • Clear skies